Ashville, PA

1:00 AM EST on December 12, 2019 (GMT -0500)
Buckhorn | | Change Station

Elev 2484 ft 40.55 °N, 78.51 °W | Updated 6 seconds ago

Partly Cloudy
Partly Cloudy
14.5 °F
Feels Like 14 °F
N
2.24
Wind Variable Wind from ESE
Gusts 4.9 mph

Today
High -- | Low -- °F
--% Chance of Precip.
Yesterday
High -- | Low -- °F
Precip. -- in
Pressure 30.60 in
Visibility 10.0 miles
Clouds Scattered Clouds 3300 ft
Windchill 14 °F
Dew Point -2 °F
Humidity 47%
Rainfall 0.00 in
Snow Depth Not available.
7:28 AM 4:47 PM
Full, 100% visible
METAR KAOO 120553Z AUTO 29003KT 10SM SCT033 M06/M12 A3053 RMK AO2 SLP362 60000 T10611122 11022 21061 51025
Pressure 30.60 in
Visibility 10.0 miles
Clouds Scattered Clouds 3300 ft
Windchill 14 °F
Dew Point -2 °F
Humidity 47%
Rainfall 0.00 in
Snow Depth Not available.
7:28 AM 4:47 PM
Full, 100% visible
METAR KAOO 120553Z AUTO 29003KT 10SM SCT033 M06/M12 A3053 RMK AO2 SLP362 60000 T10611122 11022 21061 51025

Get Severe Weather Alerts

Thanks for signing up!

Be on the lookout for a verification email in your inbox.

You'll start receiving the daily forecast at 6 AM.

×

10-Day Weather Forecast

Almanac

Astronomy

Dec. 12, 2019 Rise Set
Actual Time
Civil Twilight
Nautical Twilight
Astronomical Twilight
Moon
Length of Visible Light
Length of Day
Tomorrow will be .
, % of the Moon is Illuminated

Today's Extremes

State Highs State Lows

Community

WunderPhotos

Category 6

Welcome to Category 6. This is the collective home for Weather Underground's featured writeups by Dr. Jeff Masters (right), Bob Henson (left), Chris Burt, and other regular contributors.

Nearby

Air Quality

  Air Quality AQ Index Pollutant
Not available.

Snow Depth

Station Depth Elevation

Earthquake Activity

City Distance Mag. Time & Date
Minimum magnitude displayed is 2.5.

Coastal Water Temperatures

Place Temperature

Stations

Nearby Weather Stations

Station Location Temp. Windchill Dew Point Humidity Wind Precip. Elev Updated Type
                   

Watches & Warnings

There are currently no watches in effect.